Time;durP1;ratioP1;P1;durP2;ratioP2;P2;SDS_P1;SDS_P2;PMS_P1;PMS_P2;Temp;Humidity;BMP_temperature;BMP_pressure;BME280_temperature;BME280_humidity;BME280_pressure;Samples;Min_cycle;Max_cycle;Signal;HPM_P1;HPM_P2
2022/10/26 00:01:44;;;;;;;11.33;5.33;;;12.80;99.90;;;;;;5061504;28;20510;-74
2022/10/26 00:04:31;;;;;;;15.83;4.60;;;12.60;99.90;;;;;;5065193;28;20442;-74
2022/10/26 00:07:17;;;;;;;7.43;4.90;;;12.70;99.90;;;;;;5065874;28;20979;-74
2022/10/26 00:10:03;;;;;;;7.30;5.33;;;12.70;99.90;;;;;;5057902;28;20441;-73
2022/10/26 00:12:50;;;;;;;9.70;5.60;;;12.70;99.90;;;;;;5062149;28;20417;-74
2022/10/26 00:15:40;;;;;;;7.73;4.53;;;12.60;99.90;;;;;;5060785;28;20511;-74
2022/10/26 00:18:26;;;;;;;8.90;4.97;;;12.50;99.90;;;;;;5053139;28;21329;-73
2022/10/26 00:21:14;;;;;;;13.10;5.43;;;12.50;99.90;;;;;;5054936;28;20521;-73
2022/10/26 00:23:59;;;;;;;7.63;5.13;;;12.50;99.90;;;;;;5057171;28;20442;-75
2022/10/26 00:26:45;;;;;;;7.23;5.30;;;12.60;99.90;;;;;;5058985;28;20458;-74
2022/10/26 00:29:30;;;;;;;9.70;5.40;;;12.60;99.90;;;;;;5060661;28;20455;-72
2022/10/26 00:32:16;;;;;;;10.50;5.47;;;12.50;99.90;;;;;;5066905;28;20460;-74
2022/10/26 00:35:02;;;;;;;12.30;6.37;;;12.50;99.90;;;;;;5068985;28;20466;-74
2022/10/26 00:37:49;;;;;;;20.20;6.40;;;12.50;99.90;;;;;;5067368;28;20520;-72
2022/10/26 00:40:35;;;;;;;8.63;4.80;;;12.50;99.90;;;;;;5072070;28;20462;-74
2022/10/26 00:43:36;;;;;;;9.93;4.30;;;12.50;99.90;;;;;;5071451;28;20927;-74
2022/10/26 00:46:24;;;;;;;8.40;5.77;;;12.60;99.90;;;;;;5061360;28;20422;-74
2022/10/26 00:49:16;;;;;;;10.67;4.60;;;12.60;99.90;;;;;;5066663;28;20474;-74
2022/10/26 00:52:01;;;;;;;10.07;5.73;;;12.70;99.90;;;;;;5067033;28;20420;-73
2022/10/26 00:54:48;;;;;;;11.20;4.63;;;12.70;99.90;;;;;;5066935;28;20540;-74
2022/10/26 00:57:36;;;;;;;14.47;4.87;;;12.70;99.90;;;;;;5061482;28;20452;-73
2022/10/26 01:00:22;;;;;;;9.40;4.67;;;12.80;99.90;;;;;;5069477;28;20444;-74
2022/10/26 01:03:08;;;;;;;16.30;4.17;;;12.90;99.90;;;;;;5067463;28;20417;-74
2022/10/26 01:05:57;;;;;;;6.23;4.40;;;12.90;99.90;;;;;;5063004;28;20430;-74
2022/10/26 01:08:43;;;;;;;6.00;4.30;;;13.00;99.90;;;;;;5063373;28;20552;-74
2022/10/26 01:11:31;;;;;;;9.67;5.67;;;12.90;99.90;;;;;;5066337;28;20409;-74
2022/10/26 01:14:19;;;;;;;7.73;4.50;;;12.80;99.90;;;;;;5067887;28;20441;-72
2022/10/26 01:17:18;;;;;;;8.47;5.27;;;12.80;99.90;;;;;;5065831;28;20478;-74
2022/10/26 01:20:46;;;;;;;7.73;5.03;;;12.80;99.90;;;;;;5063795;28;21138;-74
2022/10/26 01:23:36;;;;;;;9.10;4.90;;;12.80;99.90;;;;;;5044513;28;21006;-74
2022/10/26 01:27:06;;;;;;;7.13;3.53;;;12.60;99.90;;;;;;5066524;28;20490;-74
2022/10/26 01:30:15;;;;;;;8.13;4.30;;;12.60;99.90;;;;;;5067495;28;20447;-74
2022/10/26 01:33:29;;;;;;;9.77;3.90;;;12.70;99.90;;;;;;5063242;28;20438;-72
2022/10/26 01:36:22;;;;;;;13.80;4.30;;;12.80;99.90;;;;;;5063334;28;20477;-72
2022/10/26 01:39:14;;;;;;;8.97;4.20;;;12.90;99.90;;;;;;5066208;28;20879;-72
2022/10/26 01:42:03;;;;;;;8.03;3.77;;;12.80;99.90;;;;;;5062841;28;20443;-72
2022/10/26 01:44:53;;;;;;;21.00;5.07;;;12.90;99.90;;;;;;5062894;28;20560;-72
2022/10/26 01:47:41;;;;;;;10.53;3.03;;;12.90;99.90;;;;;;5059909;28;20871;-72
2022/10/26 01:50:27;;;;;;;7.93;4.07;;;13.00;99.90;;;;;;5065556;28;20902;-72
2022/10/26 01:53:14;;;;;;;8.40;3.03;;;13.00;99.90;;;;;;5064759;28;20536;-72
2022/10/26 01:56:01;;;;;;;6.17;3.60;;;13.00;99.90;;;;;;5065558;28;20608;-72
2022/10/26 01:59:13;;;;;;;5.43;3.67;;;13.00;99.90;;;;;;5066006;28;20568;-72
2022/10/26 02:02:25;;;;;;;8.13;3.40;;;13.10;99.90;;;;;;5067183;28;21007;-72
2022/10/26 02:05:25;;;;;;;10.83;3.80;;;13.00;99.90;;;;;;5063646;28;20452;-72
2022/10/26 02:08:35;;;;;;;4.33;2.80;;;13.00;99.90;;;;;;5064949;28;20447;-72
2022/10/26 02:11:32;;;;;;;10.07;3.80;;;13.10;99.90;;;;;;5064734;28;20442;-72
2022/10/26 02:14:23;;;;;;;11.00;3.63;;;13.20;99.90;;;;;;5066886;28;20462;-72
2022/10/26 02:17:16;;;;;;;12.37;3.67;;;13.20;99.90;;;;;;5060515;28;20495;-72
2022/10/26 02:20:05;;;;;;;6.70;3.50;;;13.10;99.90;;;;;;5061844;28;20421;-72
2022/10/26 02:22:55;;;;;;;9.70;4.07;;;13.10;99.90;;;;;;5062303;28;20923;-72
2022/10/26 02:25:47;;;;;;;8.03;4.00;;;13.00;99.90;;;;;;5066714;28;20803;-72
2022/10/26 02:28:37;;;;;;;7.23;3.30;;;13.00;99.90;;;;;;5066102;28;20458;-72
2022/10/26 02:31:24;;;;;;;4.67;3.40;;;13.10;99.90;;;;;;5064646;28;20436;-72
2022/10/26 02:34:14;;;;;;;12.77;4.10;;;13.20;99.90;;;;;;5060072;28;20455;-72
2022/10/26 02:37:02;;;;;;;9.30;3.60;;;13.20;99.90;;;;;;5064518;28;20465;-72
2022/10/26 02:39:51;;;;;;;7.90;3.63;;;13.20;99.90;;;;;;5068723;28;20589;-72
2022/10/26 02:42:41;;;;;;;10.90;3.67;;;13.10;99.90;;;;;;5067444;28;20435;-72
2022/10/26 02:45:30;;;;;;;13.87;4.10;;;13.20;99.90;;;;;;5063646;28;20450;-72
2022/10/26 02:48:16;;;;;;;10.03;4.67;;;13.10;99.90;;;;;;5064652;28;20450;-72
2022/10/26 02:51:09;;;;;;;16.53;4.40;;;13.20;99.90;;;;;;5061610;28;21040;-72
2022/10/26 02:53:59;;;;;;;8.60;4.13;;;13.20;99.90;;;;;;5063759;28;20524;-72
2022/10/26 02:56:52;;;;;;;9.53;3.80;;;13.10;99.90;;;;;;5058717;28;20874;-72
2022/10/26 02:59:42;;;;;;;6.20;4.47;;;13.10;99.90;;;;;;5064271;28;20420;-72
2022/10/26 03:02:29;;;;;;;8.53;3.83;;;13.10;99.90;;;;;;5067509;28;20421;-72
2022/10/26 03:05:18;;;;;;;7.60;3.23;;;13.20;99.90;;;;;;5064151;28;20589;-72
2022/10/26 03:08:04;;;;;;;5.03;2.90;;;13.10;99.90;;;;;;5063977;28;20458;-72
2022/10/26 03:10:49;;;;;;;10.83;2.93;;;13.20;99.90;;;;;;5066486;28;20784;-71
2022/10/26 03:13:36;;;;;;;11.17;3.70;;;13.20;99.90;;;;;;5057414;28;20448;-72
2022/10/26 03:16:22;;;;;;;10.70;2.13;;;13.20;99.90;;;;;;5063972;28;20474;-72
2022/10/26 03:19:07;;;;;;;12.33;3.37;;;13.20;99.90;;;;;;5066490;28;20998;-72
2022/10/26 03:21:52;;;;;;;6.50;2.30;;;13.20;99.90;;;;;;5065381;28;21042;-72
2022/10/26 03:24:38;;;;;;;6.97;2.67;;;13.10;99.90;;;;;;5065529;28;20976;-72
2022/10/26 03:27:25;;;;;;;5.73;2.20;;;13.20;99.90;;;;;;5061529;28;20436;-72
2022/10/26 03:30:13;;;;;;;4.60;2.20;;;13.10;99.90;;;;;;5063692;28;20425;-72
2022/10/26 03:32:58;;;;;;;13.57;2.50;;;13.20;99.90;;;;;;5065739;28;20437;-72
2022/10/26 03:35:44;;;;;;;5.10;2.90;;;13.20;99.90;;;;;;5060407;28;20443;-72
2022/10/26 03:38:30;;;;;;;3.40;1.93;;;13.30;99.90;;;;;;5063498;28;20446;-72
2022/10/26 03:41:15;;;;;;;4.00;1.93;;;13.40;99.90;;;;;;5067076;28;20554;-71
2022/10/26 03:44:01;;;;;;;8.00;2.60;;;13.40;99.90;;;;;;5063851;28;20442;-72
2022/10/26 03:46:48;;;;;;;6.57;2.17;;;13.40;99.90;;;;;;5063953;28;20491;-72
2022/10/26 03:49:34;;;;;;;9.00;2.50;;;13.40;99.90;;;;;;5064976;28;20503;-72
2022/10/26 03:52:20;;;;;;;6.70;2.10;;;13.40;99.90;;;;;;5065001;28;20840;-72
2022/10/26 03:55:06;;;;;;;10.23;2.77;;;13.50;99.90;;;;;;5063852;28;20812;-72
2022/10/26 03:57:52;;;;;;;4.33;1.80;;;13.50;99.90;;;;;;5062149;28;20445;-72
2022/10/26 04:00:38;;;;;;;8.90;2.10;;;13.50;99.90;;;;;;5066961;28;20444;-72
2022/10/26 04:03:25;;;;;;;5.63;2.33;;;13.50;99.90;;;;;;5066425;28;20496;-73
2022/10/26 04:06:10;;;;;;;3.70;2.30;;;13.60;99.90;;;;;;5062615;28;20872;-72
2022/10/26 04:09:01;;;;;;;6.80;2.07;;;13.60;99.90;;;;;;5064926;28;20442;-72
2022/10/26 04:11:46;;;;;;;5.13;2.37;;;13.60;99.90;;;;;;5070893;28;20446;-72
2022/10/26 04:14:32;;;;;;;5.57;3.07;;;13.60;99.90;;;;;;5061215;28;20968;-73
2022/10/26 04:17:18;;;;;;;4.77;2.73;;;13.60;99.90;;;;;;5068100;28;20448;-72
2022/10/26 04:20:06;;;;;;;6.80;3.47;;;13.50;99.90;;;;;;5070251;28;20441;-72
2022/10/26 04:22:58;;;;;;;5.63;3.33;;;13.50;99.90;;;;;;5061413;28;20474;-72
2022/10/26 04:25:44;;;;;;;15.30;3.90;;;13.50;99.90;;;;;;5066216;28;20439;-72
2022/10/26 04:28:29;;;;;;;8.93;3.80;;;13.40;99.90;;;;;;5070445;28;20555;-72
2022/10/26 04:31:15;;;;;;;10.37;4.00;;;13.30;99.90;;;;;;5065961;28;20973;-72
2022/10/26 04:34:01;;;;;;;11.27;3.93;;;13.30;99.90;;;;;;5068869;28;20525;-72
2022/10/26 04:36:48;;;;;;;8.13;3.57;;;13.20;99.90;;;;;;5065595;28;20463;-72
2022/10/26 04:39:33;;;;;;;13.57;4.07;;;13.20;99.90;;;;;;5065609;28;20418;-72
2022/10/26 04:42:19;;;;;;;6.73;4.10;;;13.10;99.90;;;;;;5060804;28;20472;-72
2022/10/26 04:45:05;;;;;;;8.80;4.07;;;13.00;99.90;;;;;;5063296;28;20606;-72
2022/10/26 04:47:59;;;;;;;8.23;2.93;;;12.90;99.90;;;;;;5065248;28;20466;-72
2022/10/26 04:50:46;;;;;;;3.87;3.00;;;12.80;99.90;;;;;;5073773;28;20396;-72
2022/10/26 04:53:33;;;;;;;5.03;2.87;;;12.90;99.90;;;;;;5063956;28;20426;-72
2022/10/26 04:56:19;;;;;;;5.17;3.47;;;13.00;99.90;;;;;;5062170;28;20520;-72
2022/10/26 04:59:04;;;;;;;9.40;3.30;;;12.90;99.90;;;;;;5070775;28;21062;-72
2022/10/26 05:01:50;;;;;;;9.03;3.03;;;12.90;99.90;;;;;;5067656;28;20612;-72
2022/10/26 05:04:36;;;;;;;10.07;3.03;;;12.90;99.90;;;;;;5069466;28;20982;-72
2022/10/26 05:07:22;;;;;;;8.77;3.83;;;12.90;99.90;;;;;;5068090;28;20572;-72
2022/10/26 05:10:09;;;;;;;7.20;3.10;;;12.90;99.90;;;;;;5070178;28;20397;-72
2022/10/26 05:12:56;;;;;;;5.47;3.20;;;13.00;99.90;;;;;;5071958;28;20530;-72
2022/10/26 05:15:41;;;;;;;7.60;3.17;;;13.00;99.90;;;;;;5066461;28;20417;-72
2022/10/26 05:18:27;;;;;;;6.70;3.30;;;12.90;99.90;;;;;;5064599;28;20436;-72
2022/10/26 05:21:18;;;;;;;4.30;2.70;;;12.90;99.90;;;;;;5071744;28;20821;-72
2022/10/26 05:24:03;;;;;;;8.13;2.30;;;13.00;99.90;;;;;;5068014;28;20990;-72
2022/10/26 05:26:50;;;;;;;4.20;2.43;;;13.00;99.90;;;;;;5062374;28;20569;-72
2022/10/26 05:29:36;;;;;;;15.63;2.60;;;13.00;99.90;;;;;;5072860;28;20427;-72
2022/10/26 05:32:21;;;;;;;5.30;2.37;;;13.00;99.90;;;;;;5068887;28;20962;-72
2022/10/26 05:35:08;;;;;;;11.50;3.03;;;13.00;99.90;;;;;;5063021;28;20443;-72
2022/10/26 05:37:53;;;;;;;7.23;2.87;;;12.90;99.90;;;;;;5065716;28;20443;-72
2022/10/26 05:40:46;;;;;;;3.63;1.87;;;12.90;99.90;;;;;;5073054;28;20426;-71
2022/10/26 05:43:33;;;;;;;13.00;2.63;;;12.90;99.90;;;;;;5071123;28;20423;-72
2022/10/26 05:46:18;;;;;;;5.83;2.37;;;12.90;99.90;;;;;;5068349;28;20996;-72
2022/10/26 05:49:04;;;;;;;11.40;2.87;;;12.80;99.90;;;;;;5072618;28;20394;-72
2022/10/26 05:51:50;;;;;;;12.70;2.73;;;12.80;99.90;;;;;;5072554;28;20423;-72
2022/10/26 05:54:35;;;;;;;5.77;2.10;;;12.90;99.90;;;;;;5064783;28;20812;-72
2022/10/26 05:57:22;;;;;;;2.70;2.03;;;13.00;99.90;;;;;;5070714;28;20447;-73
2022/10/26 06:00:14;;;;;;;7.80;2.97;;;13.00;99.90;;;;;;5062975;28;20423;-72
2022/10/26 06:03:15;;;;;;;12.93;2.93;;;13.00;99.90;;;;;;5064516;28;20589;-73
2022/10/26 06:06:01;;;;;;;8.03;2.37;;;13.00;99.90;;;;;;5067181;28;20517;-73
2022/10/26 06:08:48;;;;;;;4.77;2.17;;;12.90;99.90;;;;;;5072391;28;20409;-71
2022/10/26 06:11:34;;;;;;;10.53;2.30;;;12.90;99.90;;;;;;5069923;28;20712;-71
2022/10/26 06:14:20;;;;;;;5.90;2.80;;;12.90;99.90;;;;;;5065914;28;20449;-71
2022/10/26 06:17:22;;;;;;;4.23;2.23;;;13.00;99.90;;;;;;5069028;28;20429;-72
2022/10/26 06:20:28;;;;;;;11.50;3.07;;;13.10;99.90;;;;;;5068651;28;20808;-72
2022/10/26 06:23:32;;;;;;;6.50;2.47;;;13.10;99.90;;;;;;5063180;28;20471;-72
2022/10/26 06:26:28;;;;;;;3.60;2.13;;;13.20;99.90;;;;;;5060445;28;20445;-72
2022/10/26 06:29:25;;;;;;;5.93;2.27;;;13.20;99.90;;;;;;5071119;28;20453;-72
2022/10/26 06:32:12;;;;;;;4.13;2.23;;;13.20;99.90;;;;;;5062916;28;20410;-72
2022/10/26 06:35:11;;;;;;;3.53;2.60;;;13.20;99.90;;;;;;5058117;28;20441;-72
2022/10/26 06:37:59;;;;;;;3.30;2.57;;;13.30;99.90;;;;;;5066331;28;20991;-72
2022/10/26 06:40:47;;;;;;;5.03;2.63;;;13.30;99.90;;;;;;5066188;28;20765;-70
2022/10/26 06:43:35;;;;;;;6.90;2.87;;;13.30;99.90;;;;;;5061309;28;20774;-70
2022/10/26 06:46:32;;;;;;;7.70;3.63;;;13.30;99.90;;;;;;5065621;28;20477;-70
2022/10/26 06:49:27;;;;;;;9.20;3.17;;;13.40;99.90;;;;;;5062940;28;20417;-72
2022/10/26 06:52:17;;;;;;;10.07;3.33;;;13.40;99.90;;;;;;5067490;28;20440;-72
2022/10/26 06:55:04;;;;;;;9.63;3.77;;;13.20;99.90;;;;;;5065111;28;20618;-72
2022/10/26 06:57:51;;;;;;;8.77;4.10;;;13.20;99.90;;;;;;5068543;28;20854;-71
2022/10/26 07:00:36;;;;;;;7.73;4.30;;;13.30;99.90;;;;;;5061344;28;20454;-70
2022/10/26 07:03:22;;;;;;;7.13;3.93;;;13.40;99.90;;;;;;5056090;28;20812;-70
2022/10/26 07:06:10;;;;;;;4.93;3.40;;;13.40;99.90;;;;;;5070276;28;20454;-70
2022/10/26 07:08:56;;;;;;;8.20;4.17;;;13.50;99.90;;;;;;5066433;28;20488;-70
2022/10/26 07:11:41;;;;;;;9.10;5.20;;;13.50;99.90;;;;;;5069623;28;20397;-70
2022/10/26 07:14:27;;;;;;;13.67;5.47;;;13.60;99.90;;;;;;5065054;28;20541;-70
2022/10/26 07:17:13;;;;;;;7.63;4.70;;;13.60;99.90;;;;;;5058470;28;20434;-70
2022/10/26 07:19:58;;;;;;;8.00;5.00;;;13.60;99.90;;;;;;5068441;28;20854;-70
2022/10/26 07:22:45;;;;;;;17.90;5.87;;;13.60;99.90;;;;;;5062546;28;20892;-70
2022/10/26 07:25:30;;;;;;;12.10;6.27;;;13.70;99.90;;;;;;5063661;28;20464;-70
2022/10/26 07:28:16;;;;;;;16.60;6.03;;;13.70;99.90;;;;;;5069590;28;20525;-70
2022/10/26 07:31:04;;;;;;;13.00;5.53;;;13.70;99.90;;;;;;5062866;28;20427;-72
2022/10/26 07:33:49;;;;;;;8.23;5.77;;;13.70;99.90;;;;;;5063470;28;20446;-72
2022/10/26 07:36:35;;;;;;;14.33;5.87;;;13.70;99.90;;;;;;5068228;28;20455;-71
2022/10/26 07:39:22;;;;;;;11.07;5.63;;;13.60;99.90;;;;;;5070548;28;20543;-72
2022/10/26 07:42:08;;;;;;;12.00;5.03;;;13.70;99.90;;;;;;5065773;28;20465;-72
2022/10/26 07:44:54;;;;;;;6.87;5.07;;;13.80;99.90;;;;;;5064910;28;20531;-72
2022/10/26 07:47:40;;;;;;;10.67;4.10;;;13.80;99.90;;;;;;5065132;28;20577;-72
2022/10/26 07:50:25;;;;;;;6.30;3.67;;;13.80;99.90;;;;;;5063948;28;20421;-74
2022/10/26 07:53:11;;;;;;;4.50;2.70;;;14.00;99.90;;;;;;5062462;28;20446;-74
2022/10/26 07:55:58;;;;;;;5.43;2.77;;;14.20;99.90;;;;;;5067264;28;20534;-72
2022/10/26 07:58:44;;;;;;;6.23;3.00;;;14.30;99.90;;;;;;5064780;28;20442;-74
2022/10/26 08:01:30;;;;;;;5.60;2.67;;;14.50;99.90;;;;;;5064231;28;20421;-71
2022/10/26 08:04:15;;;;;;;6.23;2.43;;;14.60;99.90;;;;;;5066380;28;20434;-74
2022/10/26 08:07:01;;;;;;;5.77;2.90;;;14.70;99.90;;;;;;5063652;28;20798;-74
2022/10/26 08:09:47;;;;;;;5.70;2.90;;;14.70;99.90;;;;;;5065060;28;20427;-73
2022/10/26 08:12:33;;;;;;;6.10;2.90;;;14.80;99.90;;;;;;5061386;28;20444;-74
2022/10/26 08:15:19;;;;;;;7.90;2.40;;;14.90;99.90;;;;;;5065398;28;20793;-74
2022/10/26 08:18:05;;;;;;;5.00;1.90;;;14.90;99.90;;;;;;5061235;28;20461;-74
2022/10/26 08:20:51;;;;;;;7.20;2.70;;;15.00;99.90;;;;;;5066705;28;20790;-74
2022/10/26 08:23:36;;;;;;;8.37;2.60;;;15.00;99.90;;;;;;5063123;28;20467;-74
2022/10/26 08:26:22;;;;;;;5.03;2.30;;;15.10;99.90;;;;;;5063023;28;20460;-74
2022/10/26 08:29:09;;;;;;;4.90;2.33;;;15.20;99.90;;;;;;5064949;28;20465;-72
2022/10/26 08:31:56;;;;;;;7.07;2.23;;;15.30;99.90;;;;;;5061393;28;20489;-74
2022/10/26 08:34:41;;;;;;;11.33;2.90;;;15.40;99.90;;;;;;5064643;28;20512;-74
2022/10/26 08:37:27;;;;;;;6.63;3.00;;;15.40;99.90;;;;;;5067714;28;20981;-74
2022/10/26 08:40:16;;;;;;;8.70;2.87;;;15.40;99.90;;;;;;5064946;28;20472;-74
2022/10/26 08:43:05;;;;;;;10.00;2.20;;;15.50;99.90;;;;;;5061901;28;20465;-73
2022/10/26 08:45:57;;;;;;;4.20;1.83;;;15.50;99.90;;;;;;5064606;28;20421;-73
2022/10/26 08:48:47;;;;;;;9.57;2.80;;;15.60;99.90;;;;;;5061166;28;20451;-73
2022/10/26 08:51:36;;;;;;;9.07;2.27;;;15.70;99.90;;;;;;5065937;28;20470;-74
2022/10/26 08:54:33;;;;;;;11.23;2.60;;;15.80;99.90;;;;;;5064914;28;20490;-74
2022/10/26 08:57:23;;;;;;;5.83;2.47;;;15.90;99.90;;;;;;5073833;28;20445;-74
2022/10/26 09:00:14;;;;;;;8.73;2.40;;;16.00;99.90;;;;;;5072782;28;20409;-73
2022/10/26 09:03:09;;;;;;;11.53;2.30;;;16.10;99.90;;;;;;5066262;28;20448;-74
2022/10/26 09:06:13;;;;;;;5.40;3.10;;;16.20;99.90;;;;;;5068127;28;20446;-73
2022/10/26 09:09:04;;;;;;;5.17;2.03;;;16.30;99.90;;;;;;5066361;28;20458;-74
2022/10/26 09:12:00;;;;;;;4.80;2.20;;;16.40;99.90;;;;;;5064437;28;20429;-73
2022/10/26 09:14:56;;;;;;;8.20;2.30;;;16.50;99.90;;;;;;5071047;28;20573;-73
2022/10/26 09:17:47;;;;;;;5.10;2.63;;;16.60;99.90;;;;;;5071087;28;20461;-74
2022/10/26 09:21:07;;;;;;;7.67;3.10;;;16.70;99.90;;;;;;5065678;28;20417;-74
2022/10/26 09:24:01;;;;;;;7.83;2.43;;;16.70;99.90;;;;;;5069288;28;20959;-74
2022/10/26 09:26:54;;;;;;;8.93;3.77;;;16.80;99.90;;;;;;5065494;28;20528;-73
2022/10/26 09:29:42;;;;;;;10.20;3.80;;;16.80;99.90;;;;;;5068340;28;20423;-74
2022/10/26 09:32:35;;;;;;;9.17;2.40;;;16.80;99.90;;;;;;5067080;28;20481;-74
2022/10/26 09:35:23;;;;;;;7.80;2.73;;;16.90;99.90;;;;;;5072304;28;20428;-73
2022/10/26 09:38:16;;;;;;;4.70;2.37;;;17.00;99.90;;;;;;5070248;28;20406;-74
2022/10/26 09:41:06;;;;;;;4.37;2.10;;;17.00;99.90;;;;;;5061398;28;20417;-74
2022/10/26 09:43:57;;;;;;;8.77;2.70;;;17.10;99.90;;;;;;5064439;28;20523;-73
2022/10/26 09:46:50;;;;;;;8.33;3.20;;;17.30;99.90;;;;;;5068908;28;20442;-74
2022/10/26 09:49:42;;;;;;;7.20;2.80;;;17.40;99.90;;;;;;5069933;28;20492;-74
2022/10/26 09:52:28;;;;;;;9.10;2.63;;;17.50;99.90;;;;;;5059550;28;20407;-74
2022/10/26 09:55:15;;;;;;;12.90;3.07;;;17.70;99.90;;;;;;5062631;28;20524;-74
2022/10/26 09:58:03;;;;;;;6.83;3.17;;;17.80;99.90;;;;;;5052957;28;20447;-74
2022/10/26 10:00:50;;;;;;;6.80;3.30;;;17.90;99.90;;;;;;5060697;28;20787;-74
2022/10/26 10:03:36;;;;;;;3.37;2.17;;;18.10;99.90;;;;;;5065004;28;20962;-74
2022/10/26 10:06:22;;;;;;;7.03;3.20;;;18.20;99.90;;;;;;5072347;28;20445;-74
2022/10/26 10:09:12;;;;;;;10.70;3.10;;;18.30;99.90;;;;;;5052646;28;20435;-75
2022/10/26 10:12:01;;;;;;;5.10;2.40;;;18.40;99.90;;;;;;5062457;28;20484;-73
2022/10/26 10:14:57;;;;;;;6.53;2.20;;;18.60;99.90;;;;;;5065804;28;20942;-73
2022/10/26 10:17:48;;;;;;;5.20;2.60;;;18.80;99.90;;;;;;5066934;28;20482;-74
2022/10/26 10:20:34;;;;;;;6.67;2.70;;;19.00;99.90;;;;;;5056792;28;20429;-74
2022/10/26 10:23:27;;;;;;;7.10;2.50;;;19.00;99.90;;;;;;5071164;28;20458;-73
2022/10/26 10:26:12;;;;;;;5.37;2.17;;;19.10;99.90;;;;;;5065808;28;20444;-72
2022/10/26 10:29:02;;;;;;;8.73;2.60;;;19.10;99.90;;;;;;5064256;28;20446;-72
2022/10/26 10:31:56;;;;;;;7.47;2.50;;;18.90;99.90;;;;;;5068823;28;20525;-71
2022/10/26 10:34:42;;;;;;;11.30;2.50;;;18.90;99.90;;;;;;5066802;28;20421;-72
2022/10/26 10:37:32;;;;;;;9.70;2.50;;;18.80;99.90;;;;;;5064319;28;20469;-72
2022/10/26 10:40:20;;;;;;;8.90;3.00;;;18.70;99.90;;;;;;5065226;28;20442;-73
2022/10/26 10:43:13;;;;;;;5.87;2.60;;;18.60;99.90;;;;;;5066002;28;20466;-70
2022/10/26 10:46:00;;;;;;;9.23;2.30;;;18.60;99.90;;;;;;5065750;28;20520;-72
2022/10/26 10:48:48;;;;;;;6.77;2.43;;;18.50;99.90;;;;;;5068674;28;20425;-73
2022/10/26 10:51:39;;;;;;;6.10;2.73;;;18.50;99.90;;;;;;5067639;28;20577;-73
2022/10/26 10:54:29;;;;;;;8.20;2.83;;;18.40;99.90;;;;;;5064457;28;21059;-72
2022/10/26 10:57:21;;;;;;;16.00;3.20;;;18.40;99.90;;;;;;5062697;28;20449;-72
2022/10/26 11:00:10;;;;;;;6.63;2.80;;;18.50;99.90;;;;;;5061223;28;20444;-72
2022/10/26 11:03:32;;;;;;;9.83;3.20;;;18.50;99.90;;;;;;5066002;28;20992;-73
2022/10/26 11:06:20;;;;;;;6.40;2.20;;;18.50;99.90;;;;;;5065701;28;20445;-72
2022/10/26 11:09:10;;;;;;;8.80;3.00;;;18.40;99.90;;;;;;5062840;28;21049;-73
2022/10/26 11:12:01;;;;;;;10.43;3.57;;;18.50;99.90;;;;;;5062447;28;20439;-72
2022/10/26 11:14:52;;;;;;;4.97;2.87;;;18.60;99.90;;;;;;5065306;28;20957;-72
2022/10/26 11:17:44;;;;;;;9.37;2.60;;;18.60;99.90;;;;;;5065151;28;20470;-70
2022/10/26 11:20:34;;;;;;;8.17;2.87;;;18.70;99.90;;;;;;5060561;28;20964;-70
2022/10/26 11:23:23;;;;;;;6.40;2.90;;;18.70;99.90;;;;;;5063437;28;20466;-69
2022/10/26 11:26:13;;;;;;;8.97;3.80;;;18.80;99.90;;;;;;5065095;28;20486;-72
2022/10/26 11:29:03;;;;;;;6.70;3.37;;;18.90;99.90;;;;;;5063751;28;20420;-72
2022/10/26 11:31:54;;;;;;;9.80;2.67;;;19.10;99.90;;;;;;5062565;28;21053;-72
2022/10/26 11:34:46;;;;;;;7.87;3.07;;;19.20;99.90;;;;;;5065356;28;20414;-72
2022/10/26 11:37:41;;;;;;;5.63;2.90;;;19.40;99.90;;;;;;5052826;28;20449;-71
2022/10/26 11:40:34;;;;;;;6.20;2.37;;;19.50;99.90;;;;;;5060063;28;21961;-73
2022/10/26 11:43:28;;;;;;;6.20;2.33;;;19.50;99.90;;;;;;5066468;28;20478;-73
2022/10/26 11:46:18;;;;;;;9.93;2.67;;;19.60;99.90;;;;;;5061735;28;20556;-72
2022/10/26 11:49:11;;;;;;;7.07;2.83;;;19.70;99.90;;;;;;5062681;28;20492;-72
2022/10/26 11:52:02;;;;;;;9.93;2.73;;;19.70;99.90;;;;;;5067822;28;20485;-71
2022/10/26 11:54:53;;;;;;;5.60;2.90;;;19.60;99.90;;;;;;5065436;28;20431;-70
2022/10/26 11:57:40;;;;;;;5.83;2.73;;;19.50;99.90;;;;;;5062953;28;20441;-73
2022/10/26 12:00:27;;;;;;;14.03;2.63;;;19.40;99.90;;;;;;5064826;28;20424;-71
2022/10/26 12:03:20;;;;;;;10.63;2.90;;;19.30;99.90;;;;;;5063927;28;20476;-71
2022/10/26 12:06:06;;;;;;;8.90;3.50;;;19.20;99.90;;;;;;5061931;28;20576;-72
2022/10/26 12:08:57;;;;;;;9.37;3.57;;;19.20;99.90;;;;;;5061999;28;20472;-71
2022/10/26 12:11:48;;;;;;;14.73;2.87;;;19.20;99.90;;;;;;5065065;28;20451;-70
2022/10/26 12:14:42;;;;;;;5.93;2.53;;;19.20;99.90;;;;;;5063946;28;20417;-71
2022/10/26 12:17:36;;;;;;;4.30;2.33;;;19.10;99.90;;;;;;5067889;28;20924;-72
2022/10/26 12:20:53;;;;;;;6.67;2.30;;;19.10;99.90;;;;;;5061990;28;20447;-71
2022/10/26 12:23:53;;;;;;;4.57;2.00;;;19.10;99.90;;;;;;5063742;28;20467;-72
2022/10/26 12:26:39;;;;;;;13.13;3.47;;;19.10;99.90;;;;;;5064203;28;22229;-72
2022/10/26 12:29:45;;;;;;;10.40;2.87;;;19.10;99.90;;;;;;5064002;28;20417;-71
2022/10/26 12:32:51;;;;;;;13.37;3.37;;;19.10;99.90;;;;;;5066232;28;20950;-71
2022/10/26 12:35:41;;;;;;;5.73;2.97;;;19.10;99.90;;;;;;5066236;28;20466;-71
2022/10/26 12:38:59;;;;;;;7.50;2.80;;;19.20;99.90;;;;;;5067959;28;20422;-73
2022/10/26 12:41:56;;;;;;;5.60;3.43;;;19.20;99.90;;;;;;5069404;28;20907;-71
2022/10/26 12:45:02;;;;;;;12.03;3.90;;;19.30;99.90;;;;;;5065784;28;20486;-72
2022/10/26 12:48:03;;;;;;;10.17;3.00;;;19.30;99.90;;;;;;5066383;28;20869;-71
2022/10/26 12:50:48;;;;;;;5.70;2.73;;;19.40;99.90;;;;;;5068444;28;20507;-72
2022/10/26 12:53:34;;;;;;;10.27;2.67;;;19.50;99.90;;;;;;5065618;28;20444;-74
2022/10/26 12:56:29;;;;;;;8.03;2.50;;;19.70;99.90;;;;;;5063113;28;20479;-72
2022/10/26 12:59:24;;;;;;;7.83;2.77;;;19.80;99.90;;;;;;5067244;28;20441;-73
2022/10/26 13:02:40;;;;;;;5.40;2.40;;;20.00;99.90;;;;;;5069557;28;20805;-72
2022/10/26 13:05:39;;;;;;;5.80;2.70;;;20.50;99.90;;;;;;5067941;28;20439;-75
2022/10/26 13:08:26;;;;;;;4.83;2.00;;;20.90;99.90;;;;;;5064636;28;20491;-73
2022/10/26 13:11:17;;;;;;;7.87;2.80;;;21.10;99.90;;;;;;5065786;28;20504;-73
2022/10/26 13:14:06;;;;;;;10.33;3.73;;;21.20;99.90;;;;;;5066102;28;20443;-73
2022/10/26 13:16:52;;;;;;;4.53;2.20;;;21.20;99.90;;;;;;5065298;28;20834;-73
2022/10/26 13:19:44;;;;;;;25.80;4.10;;;21.20;99.90;;;;;;5071265;28;20906;-73
2022/10/26 13:22:31;;;;;;;7.17;2.80;;;21.00;99.90;;;;;;5070542;28;20801;-73
2022/10/26 13:25:24;;;;;;;7.13;3.47;;;21.00;99.90;;;;;;5065253;28;20467;-75
2022/10/26 13:28:32;;;;;;;6.43;2.47;;;21.00;99.90;;;;;;5064181;28;20455;-72
2022/10/26 13:31:53;;;;;;;4.80;2.57;;;20.90;99.90;;;;;;5070619;28;20416;-72
2022/10/26 13:34:42;;;;;;;4.23;2.33;;;20.90;99.90;;;;;;5066708;28;20955;-72
2022/10/26 13:37:31;;;;;;;9.20;3.00;;;20.90;99.90;;;;;;5062191;28;20460;-72
2022/10/26 13:40:19;;;;;;;5.67;2.90;;;20.90;99.90;;;;;;5069375;28;20511;-72
2022/10/26 13:43:11;;;;;;;9.00;2.27;;;20.60;99.90;;;;;;5069410;28;20968;-72
2022/10/26 13:46:00;;;;;;;6.83;2.63;;;20.60;99.90;;;;;;5063297;28;20884;-72
2022/10/26 13:48:48;;;;;;;6.30;2.40;;;20.50;99.90;;;;;;5064422;28;20970;-72
2022/10/26 13:51:41;;;;;;;10.10;2.70;;;20.40;99.90;;;;;;5062579;28;20444;-72
2022/10/26 13:54:32;;;;;;;6.57;3.27;;;20.40;99.90;;;;;;5069781;28;20390;-72
2022/10/26 13:57:22;;;;;;;7.00;2.80;;;20.30;99.90;;;;;;5066299;28;20515;-72
2022/10/26 14:00:15;;;;;;;10.20;3.10;;;20.20;99.90;;;;;;5068499;28;20874;-72
2022/10/26 14:03:11;;;;;;;15.43;3.20;;;20.00;99.90;;;;;;5070485;28;20421;-72
2022/10/26 14:05:57;;;;;;;8.03;2.33;;;20.00;99.90;;;;;;5068466;28;20402;-72
2022/10/26 14:08:48;;;;;;;10.83;2.70;;;19.90;99.90;;;;;;5068820;28;21100;-72
2022/10/26 14:11:36;;;;;;;5.03;2.23;;;19.90;99.90;;;;;;5069633;28;20422;-72
2022/10/26 14:14:25;;;;;;;8.93;2.77;;;19.70;99.90;;;;;;5070744;28;20442;-72
2022/10/26 14:17:19;;;;;;;9.67;2.73;;;19.70;99.90;;;;;;5064265;28;20495;-74
2022/10/26 14:20:06;;;;;;;10.97;2.60;;;19.60;99.90;;;;;;5069157;28;20421;-72
2022/10/26 14:22:52;;;;;;;13.10;2.80;;;19.50;99.90;;;;;;5066474;28;20413;-72
2022/10/26 14:25:39;;;;;;;8.50;3.33;;;19.50;99.90;;;;;;5063204;28;20527;-73
2022/10/26 14:28:26;;;;;;;5.43;2.57;;;19.40;99.90;;;;;;5067081;28;20553;-73
2022/10/26 14:31:14;;;;;;;4.63;2.17;;;19.40;99.90;;;;;;5070191;28;20402;-73
2022/10/26 14:34:00;;;;;;;9.70;2.70;;;19.40;99.90;;;;;;5070312;28;20401;-73
2022/10/26 14:36:50;;;;;;;12.70;2.80;;;19.30;99.90;;;;;;5063626;28;20572;-74
2022/10/26 14:39:39;;;;;;;9.07;2.80;;;19.30;99.90;;;;;;5067420;28;20402;-74
2022/10/26 14:42:29;;;;;;;4.67;2.20;;;19.30;99.90;;;;;;5069286;28;20430;-73